Time;durP1;ratioP1;P1;durP2;ratioP2;P2;SDS_P1;SDS_P2;PMS_P1;PMS_P2;Temp;Humidity;BMP_temperature;BMP_pressure;BME280_temperature;BME280_humidity;BME280_pressure;Samples;Min_cycle;Max_cycle;Signal;HPM_P1;HPM_P2
2021/09/02 00:02:24;;;;;;;12.32;3.58;;;;;;;;;;5038395;28;20041;-79
2021/09/02 00:04:49;;;;;;;10.23;3.97;;;;;;;;;;5022795;28;20033;-79
2021/09/02 00:07:17;;;;;;;17.00;6.68;;;;;;;;;;5039748;28;20478;-79
2021/09/02 00:09:42;;;;;;;16.95;6.32;;;;;;;;;;5022569;28;20124;-79
2021/09/02 00:12:08;;;;;;;18.55;5.68;;;;;;;;;;5053840;28;20064;-79
2021/09/02 00:14:35;;;;;;;14.80;6.28;;;;;;;;;;5057884;28;20045;-79
2021/09/02 00:17:01;;;;;;;22.25;6.03;;;;;;;;;;5041952;28;20505;-79
2021/09/02 00:19:28;;;;;;;12.73;6.50;;;;;;;;;;5058576;28;20037;-79
2021/09/02 00:21:54;;;;;;;16.73;6.25;;;;;;;;;;5041120;28;20051;-79
2021/09/02 00:24:20;;;;;;;18.85;5.65;;;;;;;;;;5040466;28;20406;-79
2021/09/02 00:26:46;;;;;;;33.85;6.70;;;;;;;;;;5056849;28;20545;-79
2021/09/02 00:29:11;;;;;;;31.42;8.77;;;;;;;;;;5057764;28;20056;-79
2021/09/02 00:31:37;;;;;;;20.02;7.50;;;;;;;;;;5057589;28;20033;-79
2021/09/02 00:34:02;;;;;;;18.88;6.97;;;;;;;;;;5057554;28;20033;-79
2021/09/02 00:36:28;;;;;;;13.27;6.18;;;;;;;;;;5058355;28;20554;-79
2021/09/02 00:38:54;;;;;;;12.07;5.82;;;;;;;;;;5057010;28;20426;-79
2021/09/02 00:41:20;;;;;;;12.02;7.32;;;;;;;;;;5040585;28;20036;-78
2021/09/02 00:43:45;;;;;;;10.85;5.30;;;;;;;;;;5056621;28;20047;-79
2021/09/02 00:46:16;;;;;;;11.05;4.68;;;;;;;;;;5057751;28;20066;-79
2021/09/02 00:48:46;;;;;;;12.40;5.25;;;;;;;;;;5059227;28;20391;-79
2021/09/02 00:51:14;;;;;;;6.70;4.20;;;;;;;;;;5057242;28;20040;-79
2021/09/02 00:53:40;;;;;;;9.95;4.53;;;;;;;;;;5057561;28;20021;-79
2021/09/02 00:56:05;;;;;;;10.88;5.47;;;;;;;;;;5057030;28;20458;-79
2021/09/02 00:58:32;;;;;;;9.10;4.93;;;;;;;;;;5056690;28;20044;-79
2021/09/02 01:00:57;;;;;;;14.68;6.30;;;;;;;;;;5056921;28;20445;-79
2021/09/02 01:03:24;;;;;;;10.45;5.25;;;;;;;;;;5056860;28;20047;-78
2021/09/02 01:05:54;;;;;;;18.08;5.80;;;;;;;;;;5039874;28;20041;-79
2021/09/02 01:08:20;;;;;;;11.82;5.38;;;;;;;;;;5045059;28;20041;-79
2021/09/02 01:10:49;;;;;;;12.57;6.20;;;;;;;;;;5020818;28;20029;-78
2021/09/02 01:13:21;;;;;;;14.52;5.80;;;;;;;;;;5037461;28;20037;-79
2021/09/02 01:15:47;;;;;;;14.57;5.45;;;;;;;;;;5020304;28;20025;-79
2021/09/02 01:18:13;;;;;;;11.52;6.95;;;;;;;;;;5037043;28;20056;-79
2021/09/02 01:20:38;;;;;;;16.90;7.55;;;;;;;;;;5036960;28;20516;-79
2021/09/02 01:23:06;;;;;;;18.15;6.72;;;;;;;;;;5037426;28;20041;-79
2021/09/02 01:25:36;;;;;;;12.05;6.28;;;;;;;;;;5037241;28;20037;-79
2021/09/02 01:28:06;;;;;;;20.55;7.22;;;;;;;;;;5020084;28;20075;-79
2021/09/02 01:30:36;;;;;;;18.02;7.45;;;;;;;;;;5020439;28;20033;-79
2021/09/02 01:33:03;;;;;;;12.60;6.85;;;;;;;;;;5020353;28;20057;-79
2021/09/02 01:35:31;;;;;;;29.15;7.00;;;;;;;;;;5036631;28;20033;-79
2021/09/02 01:38:00;;;;;;;24.77;7.55;;;;;;;;;;5025511;28;20068;-79
2021/09/02 01:40:33;;;;;;;29.30;8.13;;;;;;;;;;5040616;28;20029;-79
2021/09/02 01:43:01;;;;;;;23.23;8.10;;;;;;;;;;5039807;28;20041;-79
2021/09/02 01:45:27;;;;;;;28.02;7.75;;;;;;;;;;5039931;28;20087;-79
2021/09/02 01:47:58;;;;;;;21.33;7.43;;;;;;;;;;5039268;28;20033;-79
2021/09/02 01:50:26;;;;;;;11.95;6.72;;;;;;;;;;5038750;28;20037;-79
2021/09/02 01:52:55;;;;;;;21.13;7.45;;;;;;;;;;5056335;28;20029;-79
2021/09/02 01:55:22;;;;;;;30.60;6.97;;;;;;;;;;5056085;28;20047;-79
2021/09/02 01:57:49;;;;;;;17.25;6.75;;;;;;;;;;5038997;28;20033;-79
2021/09/02 02:00:16;;;;;;;16.17;7.43;;;;;;;;;;5039442;28;20033;-79
2021/09/02 02:02:43;;;;;;;9.63;7.10;;;;;;;;;;5039155;28;20398;-79
2021/09/02 02:05:11;;;;;;;20.35;8.27;;;;;;;;;;5039521;28;20693;-79
2021/09/02 02:07:39;;;;;;;18.65;7.47;;;;;;;;;;5038830;28;20033;-79
2021/09/02 02:10:09;;;;;;;21.75;8.50;;;;;;;;;;5039545;28;20176;-79
2021/09/02 02:12:34;;;;;;;15.48;7.82;;;;;;;;;;5055575;28;20029;-79
2021/09/02 02:15:00;;;;;;;12.90;8.10;;;;;;;;;;5055273;28;20040;-78
2021/09/02 02:17:25;;;;;;;44.10;8.32;;;;;;;;;;5056980;28;20036;-78
2021/09/02 02:19:51;;;;;;;16.52;8.93;;;;;;;;;;5043043;28;20606;-78
2021/09/02 02:22:19;;;;;;;19.48;8.52;;;;;;;;;;5059155;28;20065;-78
2021/09/02 02:24:44;;;;;;;14.32;8.70;;;;;;;;;;5043139;28;20043;-78
2021/09/02 02:27:10;;;;;;;26.30;8.57;;;;;;;;;;5042262;28;20439;-78
2021/09/02 02:29:35;;;;;;;15.20;8.45;;;;;;;;;;5058978;28;20475;-78
2021/09/02 02:32:01;;;;;;;9.70;7.60;;;;;;;;;;5058787;28;20051;-78
2021/09/02 02:34:28;;;;;;;9.50;6.97;;;;;;;;;;5042505;28;20055;-78
2021/09/02 02:36:54;;;;;;;53.80;7.85;;;;;;;;;;5058521;28;20037;-79
2021/09/02 02:39:19;;;;;;;11.00;6.93;;;;;;;;;;5046681;28;20095;-78
2021/09/02 02:41:46;;;;;;;7.65;6.68;;;;;;;;;;5038111;28;20095;-78
2021/09/02 02:44:12;;;;;;;9.25;6.80;;;;;;;;;;5022535;28;20033;-78
2021/09/02 02:46:40;;;;;;;11.00;7.00;;;;;;;;;;5022364;28;20404;-79
2021/09/02 02:49:05;;;;;;;49.17;8.38;;;;;;;;;;5022975;28;20128;-78
2021/09/02 02:51:33;;;;;;;95.60;9.13;;;;;;;;;;5038988;28;20065;-78
2021/09/02 02:53:59;;;;;;;10.98;8.23;;;;;;;;;;5018640;28;20087;-77
2021/09/02 02:56:24;;;;;;;139.32;9.43;;;;;;;;;;5035144;28;20124;-77
2021/09/02 02:58:50;;;;;;;29.88;7.05;;;;;;;;;;5023079;28;20125;-79
2021/09/02 03:01:17;;;;;;;22.45;8.75;;;;;;;;;;5023570;28;20503;-79
2021/09/02 03:03:43;;;;;;;16.20;8.57;;;;;;;;;;5023651;28;20080;-79
2021/09/02 03:06:11;;;;;;;10.07;7.80;;;;;;;;;;5040748;28;20091;-78
2021/09/02 03:08:36;;;;;;;13.70;7.65;;;;;;;;;;5045354;28;20028;-78
2021/09/02 03:11:04;;;;;;;9.77;8.20;;;;;;;;;;5059656;28;20039;-79
2021/09/02 03:13:29;;;;;;;86.65;9.20;;;;;;;;;;5043243;28;20494;-79
2021/09/02 03:15:56;;;;;;;19.70;8.68;;;;;;;;;;5060902;28;20028;-79
2021/09/02 03:18:22;;;;;;;33.38;8.52;;;;;;;;;;5059707;28;20090;-79
2021/09/02 03:20:48;;;;;;;11.50;8.45;;;;;;;;;;5043925;28;20119;-78
2021/09/02 03:23:14;;;;;;;13.45;10.18;;;;;;;;;;5060430;28;20561;-79
2021/09/02 03:25:40;;;;;;;18.75;9.35;;;;;;;;;;5043568;28;20037;-79
2021/09/02 03:28:09;;;;;;;35.92;11.10;;;;;;;;;;5043715;28;20372;-79
2021/09/02 03:30:35;;;;;;;60.80;10.98;;;;;;;;;;5042556;28;20119;-79
2021/09/02 03:33:00;;;;;;;223.25;12.93;;;;;;;;;;5043419;28;20107;-79
2021/09/02 03:35:25;;;;;;;146.25;11.45;;;;;;;;;;5063750;28;20047;-79
2021/09/02 03:37:52;;;;;;;23.67;11.45;;;;;;;;;;5061751;28;20037;-79
2021/09/02 03:40:21;;;;;;;17.42;10.45;;;;;;;;;;5045716;28;20052;-79
2021/09/02 03:42:46;;;;;;;15.57;11.02;;;;;;;;;;5062443;28;20041;-79
2021/09/02 03:45:13;;;;;;;18.30;11.45;;;;;;;;;;5045077;28;20037;-79
2021/09/02 03:47:48;;;;;;;21.98;9.90;;;;;;;;;;5061597;28;20119;-79
2021/09/02 03:50:16;;;;;;;12.95;9.15;;;;;;;;;;5061247;28;20036;-79
2021/09/02 03:52:41;;;;;;;15.48;8.90;;;;;;;;;;5044452;28;20055;-79
2021/09/02 03:55:08;;;;;;;37.92;8.02;;;;;;;;;;5044018;28;20483;-79
2021/09/02 03:57:34;;;;;;;11.57;8.70;;;;;;;;;;5060737;28;20039;-78
2021/09/02 04:00:03;;;;;;;11.45;8.50;;;;;;;;;;5043790;28;20485;-79
2021/09/02 04:02:31;;;;;;;15.60;8.60;;;;;;;;;;5060847;28;20188;-79
2021/09/02 04:04:57;;;;;;;11.32;7.32;;;;;;;;;;5043530;28;20041;-79
2021/09/02 04:07:24;;;;;;;14.30;7.40;;;;;;;;;;5060589;28;20044;-79
2021/09/02 04:09:50;;;;;;;26.08;8.05;;;;;;;;;;5059820;28;20041;-79
2021/09/02 04:12:16;;;;;;;15.80;8.20;;;;;;;;;;5059951;28;20052;-79
2021/09/02 04:14:41;;;;;;;9.38;7.85;;;;;;;;;;5061506;28;20053;-79
2021/09/02 04:17:08;;;;;;;19.42;8.02;;;;;;;;;;5047694;28;20042;-79
2021/09/02 04:19:36;;;;;;;12.43;7.53;;;;;;;;;;5062679;28;20032;-79
2021/09/02 04:22:03;;;;;;;12.40;7.70;;;;;;;;;;5064407;28;20063;-79
2021/09/02 04:24:30;;;;;;;11.68;7.35;;;;;;;;;;5060180;28;20041;-79
2021/09/02 04:26:55;;;;;;;9.50;7.53;;;;;;;;;;5060483;28;20037;-79
2021/09/02 04:29:21;;;;;;;50.47;8.43;;;;;;;;;;5059702;28;20166;-79
2021/09/02 04:31:49;;;;;;;16.27;7.90;;;;;;;;;;5043019;28;20043;-78
2021/09/02 04:34:15;;;;;;;15.13;7.18;;;;;;;;;;5042510;28;20410;-78
2021/09/02 04:36:41;;;;;;;9.95;7.20;;;;;;;;;;5042404;28;20049;-78
2021/09/02 04:39:09;;;;;;;9.65;7.60;;;;;;;;;;5028940;28;20034;-79
2021/09/02 04:41:34;;;;;;;7.65;6.65;;;;;;;;;;5038555;28;20037;-79
2021/09/02 04:44:00;;;;;;;10.80;6.75;;;;;;;;;;5041037;28;20100;-78
2021/09/02 04:46:26;;;;;;;14.80;6.90;;;;;;;;;;5041381;28;20044;-78
2021/09/02 04:48:54;;;;;;;9.88;6.53;;;;;;;;;;5038876;28;20141;-78
2021/09/02 04:51:20;;;;;;;10.85;7.95;;;;;;;;;;5023633;28;20033;-79
2021/09/02 04:53:46;;;;;;;8.45;7.30;;;;;;;;;;5039211;28;20143;-78
2021/09/02 04:56:11;;;;;;;8.73;6.90;;;;;;;;;;5040677;28;20484;-79
2021/09/02 04:58:40;;;;;;;9.27;6.72;;;;;;;;;;5041065;28;20033;-79
2021/09/02 05:01:05;;;;;;;7.68;6.35;;;;;;;;;;5024139;28;20060;-79
2021/09/02 05:03:33;;;;;;;6.93;5.53;;;;;;;;;;5040352;28;20033;-79
2021/09/02 05:05:58;;;;;;;9.02;6.30;;;;;;;;;;5022900;28;20124;-79
2021/09/02 05:08:24;;;;;;;8.63;6.07;;;;;;;;;;5039471;28;20063;-79
2021/09/02 05:10:52;;;;;;;13.63;7.65;;;;;;;;;;5078547;28;20529;-79
2021/09/02 05:13:17;;;;;;;17.00;8.63;;;;;;;;;;5078737;28;20037;-79
2021/09/02 05:15:43;;;;;;;19.83;9.80;;;;;;;;;;5079224;28;20036;-79
2021/09/02 05:18:11;;;;;;;18.00;8.77;;;;;;;;;;5080917;28;20020;-79
2021/09/02 05:20:38;;;;;;;22.75;9.38;;;;;;;;;;5059414;28;20170;-79
2021/09/02 05:23:03;;;;;;;16.20;9.57;;;;;;;;;;5043127;28;20033;-78
2021/09/02 05:25:30;;;;;;;20.55;10.20;;;;;;;;;;5059321;28;20037;-79
2021/09/02 05:27:56;;;;;;;20.60;8.98;;;;;;;;;;5042737;28;20025;-79
2021/09/02 05:30:24;;;;;;;18.08;10.93;;;;;;;;;;5042874;28;20033;-79
2021/09/02 05:32:49;;;;;;;17.70;10.18;;;;;;;;;;5042245;28;20064;-79
2021/09/02 05:35:16;;;;;;;24.80;10.82;;;;;;;;;;5060785;28;20471;-78
2021/09/02 05:37:41;;;;;;;17.05;10.23;;;;;;;;;;5042958;28;20033;-79
2021/09/02 05:40:08;;;;;;;18.52;10.90;;;;;;;;;;5058770;28;20040;-79
2021/09/02 05:42:35;;;;;;;18.40;10.60;;;;;;;;;;5058760;28;20036;-78
2021/09/02 05:45:03;;;;;;;16.55;10.27;;;;;;;;;;5060073;28;20478;-79
2021/09/02 05:47:30;;;;;;;20.20;10.88;;;;;;;;;;5042277;28;20033;-78
2021/09/02 05:49:55;;;;;;;37.53;12.38;;;;;;;;;;5059438;28;20086;-79
2021/09/02 05:52:22;;;;;;;20.65;10.93;;;;;;;;;;5042662;28;20076;-79
2021/09/02 05:54:53;;;;;;;25.10;10.77;;;;;;;;;;5059721;28;20405;-78
2021/09/02 05:57:21;;;;;;;18.95;10.50;;;;;;;;;;5041837;28;20505;-79
2021/09/02 05:59:48;;;;;;;15.60;10.63;;;;;;;;;;5041939;28;20039;-79
2021/09/02 06:02:13;;;;;;;17.98;10.20;;;;;;;;;;5058269;28;20041;-78
2021/09/02 06:04:41;;;;;;;18.25;10.45;;;;;;;;;;5042184;28;20059;-79
2021/09/02 06:07:09;;;;;;;14.88;9.75;;;;;;;;;;5059178;28;20479;-78
2021/09/02 06:09:34;;;;;;;16.25;9.20;;;;;;;;;;5042888;28;20382;-79
2021/09/02 06:12:00;;;;;;;13.00;8.40;;;;;;;;;;5059774;28;20041;-78
2021/09/02 06:14:25;;;;;;;14.80;9.43;;;;;;;;;;5042614;28;20135;-78
2021/09/02 06:16:52;;;;;;;14.05;8.60;;;;;;;;;;5059579;28;20041;-78
2021/09/02 06:19:18;;;;;;;12.80;9.50;;;;;;;;;;5041350;28;20033;-78
2021/09/02 06:21:46;;;;;;;15.68;8.82;;;;;;;;;;5039872;28;20044;-78
2021/09/02 06:24:11;;;;;;;12.52;7.80;;;;;;;;;;5046730;28;20036;-78
2021/09/02 06:26:37;;;;;;;11.68;7.57;;;;;;;;;;5029126;28;20403;-77
2021/09/02 06:29:05;;;;;;;15.70;7.35;;;;;;;;;;5018181;28;20048;-77
2021/09/02 06:31:30;;;;;;;12.77;7.50;;;;;;;;;;5041246;28;20054;-78
2021/09/02 06:33:56;;;;;;;13.05;7.40;;;;;;;;;;5035066;28;20480;-79
2021/09/02 06:36:23;;;;;;;9.60;6.32;;;;;;;;;;5017476;28;20038;-76
2021/09/02 06:38:48;;;;;;;9.65;7.35;;;;;;;;;;5032770;28;20044;-76
2021/09/02 06:41:13;;;;;;;8.32;6.50;;;;;;;;;;5046083;28;20120;-77
2021/09/02 06:43:40;;;;;;;12.90;6.38;;;;;;;;;;5043142;28;20067;-76
2021/09/02 06:46:06;;;;;;;9.15;5.65;;;;;;;;;;5034071;28;20033;-76
2021/09/02 06:48:34;;;;;;;7.45;4.95;;;;;;;;;;5052423;28;20441;-76
2021/09/02 06:50:59;;;;;;;5.95;5.07;;;;;;;;;;5034834;28;20033;-76
2021/09/02 06:53:31;;;;;;;7.30;5.65;;;;;;;;;;5054059;28;20083;-77
2021/09/02 06:55:56;;;;;;;6.47;5.32;;;;;;;;;;5035523;28;20482;-76
2021/09/02 06:58:22;;;;;;;7.50;5.90;;;;;;;;;;5050916;28;20037;-76
2021/09/02 07:00:47;;;;;;;10.93;5.38;;;;;;;;;;5052753;28;20037;-77
2021/09/02 07:03:14;;;;;;;7.22;5.72;;;;;;;;;;5053163;28;20101;-77
2021/09/02 07:05:39;;;;;;;8.40;5.28;;;;;;;;;;5055719;28;20127;-76
2021/09/02 07:08:08;;;;;;;6.70;4.82;;;;;;;;;;5055316;28;20061;-77
2021/09/02 07:10:34;;;;;;;7.30;4.63;;;;;;;;;;5057423;28;20040;-77
2021/09/02 07:13:00;;;;;;;8.20;5.13;;;;;;;;;;5056425;28;20045;-77
2021/09/02 07:15:26;;;;;;;6.43;5.13;;;;;;;;;;5055900;28;20127;-77
2021/09/02 07:17:53;;;;;;;10.70;5.45;;;;;;;;;;5055511;28;20122;-77
2021/09/02 07:20:19;;;;;;;11.02;6.32;;;;;;;;;;5038958;28;20125;-76
2021/09/02 07:22:47;;;;;;;9.23;5.78;;;;;;;;;;5058760;28;20060;-77
2021/09/02 07:25:12;;;;;;;7.90;5.38;;;;;;;;;;5041039;28;20036;-77
2021/09/02 07:27:39;;;;;;;7.57;5.15;;;;;;;;;;5039114;28;20091;-77
2021/09/02 07:30:05;;;;;;;6.55;4.60;;;;;;;;;;5039243;28;20060;-77
2021/09/02 07:32:32;;;;;;;8.35;5.53;;;;;;;;;;5055457;28;20406;-77
2021/09/02 07:34:57;;;;;;;6.57;4.88;;;;;;;;;;5038962;28;20044;-77
2021/09/02 07:37:23;;;;;;;10.57;5.82;;;;;;;;;;5057158;28;20033;-77
2021/09/02 07:39:48;;;;;;;10.00;5.30;;;;;;;;;;5041300;28;20091;-77
2021/09/02 07:42:14;;;;;;;6.90;5.15;;;;;;;;;;5035683;28;20495;-77
2021/09/02 07:44:42;;;;;;;10.98;4.68;;;;;;;;;;5034878;28;20041;-78
2021/09/02 07:47:11;;;;;;;8.15;4.85;;;;;;;;;;5035436;28;20507;-76
2021/09/02 07:49:36;;;;;;;7.63;5.70;;;;;;;;;;5048479;28;20422;-76
2021/09/02 07:52:04;;;;;;;10.18;4.95;;;;;;;;;;5038981;28;20048;-78
2021/09/02 07:54:29;;;;;;;9.75;5.43;;;;;;;;;;5059842;28;20127;-76
2021/09/02 07:56:55;;;;;;;5.35;3.95;;;;;;;;;;5055569;28;20075;-77
2021/09/02 07:59:23;;;;;;;8.65;5.28;;;;;;;;;;5039339;28;20041;-78
2021/09/02 08:01:48;;;;;;;9.05;5.13;;;;;;;;;;5040901;28;20239;-77
2021/09/02 08:04:15;;;;;;;9.40;5.72;;;;;;;;;;5039519;28;20071;-77
2021/09/02 08:06:41;;;;;;;7.22;4.72;;;;;;;;;;5055944;28;20037;-78
2021/09/02 08:09:07;;;;;;;6.60;4.60;;;;;;;;;;5039739;28;20059;-77
2021/09/02 08:11:32;;;;;;;7.72;5.28;;;;;;;;;;5038116;28;20032;-77
2021/09/02 08:13:59;;;;;;;8.30;4.82;;;;;;;;;;5037458;28;20029;-76
2021/09/02 08:16:25;;;;;;;29.05;15.90;;;;;;;;;;5054332;28;20513;-76
2021/09/02 08:18:52;;;;;;;33.88;18.77;;;;;;;;;;5036747;28;20033;-76
2021/09/02 08:21:18;;;;;;;18.27;11.00;;;;;;;;;;5053987;28;20585;-77
2021/09/02 08:23:43;;;;;;;14.57;7.20;;;;;;;;;;5053850;28;20029;-76
2021/09/02 08:26:09;;;;;;;20.02;11.18;;;;;;;;;;5036792;28;20043;-76
2021/09/02 08:28:35;;;;;;;24.05;13.15;;;;;;;;;;5054529;28;20027;-76
2021/09/02 08:31:00;;;;;;;19.67;10.90;;;;;;;;;;5053086;28;20041;-76
2021/09/02 08:33:26;;;;;;;15.05;9.48;;;;;;;;;;5055954;28;20045;-77
2021/09/02 08:35:51;;;;;;;24.23;11.68;;;;;;;;;;5039214;28;20516;-76
2021/09/02 08:38:18;;;;;;;15.90;10.35;;;;;;;;;;5053212;28;20033;-77
2021/09/02 08:40:44;;;;;;;18.27;9.32;;;;;;;;;;5056317;28;20036;-76
2021/09/02 08:43:10;;;;;;;18.40;9.00;;;;;;;;;;5073583;28;20044;-76
2021/09/02 08:45:35;;;;;;;20.10;8.73;;;;;;;;;;5074520;28;20037;-76
2021/09/02 08:48:01;;;;;;;14.57;7.60;;;;;;;;;;5056265;28;20036;-76
2021/09/02 08:50:30;;;;;;;25.02;13.10;;;;;;;;;;5072602;28;20494;-76
2021/09/02 08:52:55;;;;;;;22.55;11.07;;;;;;;;;;5072875;28;20542;-76
2021/09/02 08:55:23;;;;;;;27.35;13.35;;;;;;;;;;5073855;28;20159;-76
2021/09/02 08:57:50;;;;;;;28.75;13.77;;;;;;;;;;5073509;28;20032;-76
2021/09/02 09:00:15;;;;;;;15.18;7.93;;;;;;;;;;5073292;28;20028;-76
2021/09/02 09:02:42;;;;;;;13.13;7.25;;;;;;;;;;5073736;28;20497;-76
2021/09/02 09:05:13;;;;;;;12.45;7.30;;;;;;;;;;5072817;28;20032;-76
2021/09/02 09:07:42;;;;;;;13.48;6.85;;;;;;;;;;5073185;28;20037;-76
2021/09/02 09:10:20;;;;;;;10.52;6.20;;;;;;;;;;5055556;28;20044;-76
2021/09/02 09:12:51;;;;;;;12.32;5.70;;;;;;;;;;5036041;28;20118;-76
2021/09/02 09:15:21;;;;;;;12.68;5.63;;;;;;;;;;5052879;28;20040;-77
2021/09/02 09:17:48;;;;;;;11.82;5.30;;;;;;;;;;5036214;28;20380;-79
2021/09/02 09:20:16;;;;;;;10.85;5.43;;;;;;;;;;5055890;28;20069;-76
2021/09/02 09:22:41;;;;;;;15.10;6.43;;;;;;;;;;5053192;28;20072;-76
2021/09/02 09:25:09;;;;;;;14.77;4.88;;;;;;;;;;5052365;28;20069;-76
2021/09/02 09:27:47;;;;;;;12.70;5.60;;;;;;;;;;5051628;28;20057;-76
2021/09/02 09:30:19;;;;;;;13.70;5.50;;;;;;;;;;5052211;28;20037;-76
2021/09/02 09:32:54;;;;;;;13.63;5.25;;;;;;;;;;5035281;28;20049;-76
2021/09/02 09:35:34;;;;;;;11.45;4.90;;;;;;;;;;5052892;28;20033;-76
2021/09/02 09:38:08;;;;;;;14.85;5.05;;;;;;;;;;5053552;28;20479;-77
2021/09/02 09:40:41;;;;;;;10.43;5.75;;;;;;;;;;5052377;28;20112;-76
2021/09/02 09:43:13;;;;;;;8.73;4.50;;;;;;;;;;5035764;28;20032;-76
2021/09/02 09:45:45;;;;;;;10.23;4.70;;;;;;;;;;5052474;28;20033;-77
2021/09/02 09:48:19;;;;;;;10.45;5.15;;;;;;;;;;5053174;28;20048;-77
2021/09/02 09:50:45;;;;;;;10.63;5.25;;;;;;;;;;5052928;28;20032;-77
2021/09/02 09:53:24;;;;;;;11.88;5.20;;;;;;;;;;5052903;28;20037;-77
2021/09/02 09:55:52;;;;;;;10.32;5.15;;;;;;;;;;5053915;28;20029;-76
2021/09/02 09:58:17;;;;;;;14.02;5.68;;;;;;;;;;5052495;28;20399;-76
2021/09/02 10:00:43;;;;;;;11.18;5.07;;;;;;;;;;5053326;28;20037;-77
2021/09/02 10:03:09;;;;;;;13.50;5.70;;;;;;;;;;5052635;28;20040;-77
2021/09/02 10:05:34;;;;;;;9.93;5.18;;;;;;;;;;5036502;28;20511;-78
2021/09/02 10:08:00;;;;;;;22.88;6.25;;;;;;;;;;5036054;28;20506;-77
2021/09/02 10:10:26;;;;;;;14.25;5.53;;;;;;;;;;5052038;28;20029;-77
2021/09/02 10:12:51;;;;;;;16.33;6.75;;;;;;;;;;5050800;28;20179;-76
2021/09/02 10:15:22;;;;;;;10.95;5.22;;;;;;;;;;5051916;28;20100;-76
2021/09/02 10:17:48;;;;;;;14.68;6.35;;;;;;;;;;5051679;28;20037;-76
2021/09/02 10:20:17;;;;;;;13.77;6.75;;;;;;;;;;5053153;28;20086;-78
2021/09/02 10:22:44;;;;;;;16.40;6.55;;;;;;;;;;5053240;28;20060;-76
2021/09/02 10:25:38;;;;;;;10.57;5.45;;;;;;;;;;5054368;28;20041;-76
2021/09/02 10:28:05;;;;;;;11.45;5.32;;;;;;;;;;5052587;28;20033;-76
2021/09/02 10:30:31;;;;;;;9.35;4.82;;;;;;;;;;5051742;28;20260;-77
2021/09/02 10:32:58;;;;;;;12.13;4.95;;;;;;;;;;5052287;28;20045;-77
2021/09/02 10:35:24;;;;;;;16.25;5.65;;;;;;;;;;5053617;28;20029;-78
2021/09/02 10:37:50;;;;;;;14.90;5.72;;;;;;;;;;5055840;28;20060;-77
2021/09/02 10:40:16;;;;;;;13.25;5.75;;;;;;;;;;5042506;28;20017;-78
2021/09/02 10:42:57;;;;;;;9.75;5.30;;;;;;;;;;5056719;28;20048;-75
2021/09/02 10:45:26;;;;;;;8.65;5.00;;;;;;;;;;5055387;28;20048;-75
2021/09/02 10:47:53;;;;;;;10.13;5.05;;;;;;;;;;5057047;28;20036;-76
2021/09/02 10:50:21;;;;;;;11.18;5.70;;;;;;;;;;5055835;28;20029;-77
2021/09/02 10:52:47;;;;;;;12.80;5.03;;;;;;;;;;5038719;28;20029;-77
2021/09/02 10:55:33;;;;;;;10.25;5.38;;;;;;;;;;5056531;28;20040;-75
2021/09/02 10:58:01;;;;;;;15.40;6.07;;;;;;;;;;5056269;28;20040;-75
2021/09/02 11:00:41;;;;;;;15.20;7.10;;;;;;;;;;5055110;28;20044;-76
2021/09/02 11:03:18;;;;;;;12.63;6.57;;;;;;;;;;5054905;28;20044;-75
2021/09/02 11:05:47;;;;;;;10.63;4.93;;;;;;;;;;5056862;28;20033;-75
2021/09/02 11:08:30;;;;;;;9.90;5.32;;;;;;;;;;5053862;28;20040;-75
2021/09/02 11:11:12;;;;;;;14.70;5.40;;;;;;;;;;5056844;28;20040;-77
2021/09/02 11:13:38;;;;;;;13.18;5.95;;;;;;;;;;5039702;28;20032;-78
2021/09/02 11:16:10;;;;;;;8.93;5.55;;;;;;;;;;5038612;28;20382;-76
2021/09/02 11:18:41;;;;;;;13.68;6.05;;;;;;;;;;5037960;28;20041;-76
2021/09/02 11:21:23;;;;;;;14.23;6.47;;;;;;;;;;5054695;28;20040;-76
2021/09/02 11:23:56;;;;;;;13.82;5.50;;;;;;;;;;5055734;28;20033;-76
2021/09/02 11:26:40;;;;;;;9.20;4.82;;;;;;;;;;5055944;28;20098;-76
2021/09/02 11:29:07;;;;;;;12.35;5.03;;;;;;;;;;5037097;28;20470;-76
2021/09/02 11:31:33;;;;;;;8.40;4.97;;;;;;;;;;5074484;28;20036;-77
2021/09/02 11:33:59;;;;;;;9.02;5.72;;;;;;;;;;5075755;28;20055;-76
2021/09/02 11:36:26;;;;;;;11.20;4.95;;;;;;;;;;5057784;28;20028;-76
2021/09/02 11:39:08;;;;;;;9.15;5.00;;;;;;;;;;5063588;28;20041;-76
2021/09/02 11:41:34;;;;;;;12.27;5.28;;;;;;;;;;5055362;28;20041;-73
2021/09/02 11:43:59;;;;;;;12.82;5.43;;;;;;;;;;5055527;28;20044;-73
2021/09/02 11:46:25;;;;;;;14.02;6.72;;;;;;;;;;5055405;28;20040;-73
2021/09/02 11:48:55;;;;;;;12.43;5.53;;;;;;;;;;5055353;28;20399;-73
2021/09/02 11:51:25;;;;;;;11.77;6.18;;;;;;;;;;5054908;28;20035;-73
2021/09/02 11:54:09;;;;;;;11.23;5.07;;;;;;;;;;5055294;28;20119;-73
2021/09/02 11:56:36;;;;;;;10.32;5.95;;;;;;;;;;5055052;28;20048;-74
2021/09/02 11:59:04;;;;;;;12.77;5.80;;;;;;;;;;5055102;28;20083;-73
2021/09/02 12:01:30;;;;;;;8.20;4.75;;;;;;;;;;5054477;28;20033;-74
2021/09/02 12:03:56;;;;;;;16.25;6.57;;;;;;;;;;5054779;28;20517;-73
2021/09/02 12:06:28;;;;;;;8.43;5.30;;;;;;;;;;5054245;28;20037;-73
2021/09/02 12:08:57;;;;;;;13.65;5.25;;;;;;;;;;5053627;28;20043;-74
2021/09/02 12:11:23;;;;;;;18.67;5.85;;;;;;;;;;5053756;28;20032;-73
2021/09/02 12:13:48;;;;;;;10.02;4.85;;;;;;;;;;5053726;28;20035;-73
2021/09/02 12:16:20;;;;;;;12.93;6.30;;;;;;;;;;5054911;28;20115;-73
2021/09/02 12:18:56;;;;;;;16.05;5.10;;;;;;;;;;5054023;28;20036;-73
2021/09/02 12:21:27;;;;;;;14.15;5.15;;;;;;;;;;5054615;28;20039;-73
2021/09/02 12:24:06;;;;;;;11.35;5.22;;;;;;;;;;5054740;28;20090;-74
2021/09/02 12:26:48;;;;;;;10.65;4.30;;;;;;;;;;5054637;28;20036;-74
2021/09/02 12:29:17;;;;;;;8.93;4.55;;;;;;;;;;5054652;28;20029;-74
2021/09/02 12:31:43;;;;;;;11.40;4.90;;;;;;;;;;5053088;28;20434;-74
2021/09/02 12:34:10;;;;;;;11.02;4.40;;;;;;;;;;5054355;28;20028;-73
2021/09/02 12:36:41;;;;;;;10.75;4.25;;;;;;;;;;5036531;28;20048;-74
2021/09/02 12:39:20;;;;;;;6.15;3.88;;;;;;;;;;5053451;28;20078;-73
2021/09/02 12:41:49;;;;;;;10.27;4.05;;;;;;;;;;5053107;28;20487;-74
2021/09/02 12:44:23;;;;;;;7.18;4.57;;;;;;;;;;5054370;28;20033;-73
2021/09/02 12:46:59;;;;;;;15.23;3.72;;;;;;;;;;5052803;28;20102;-73
2021/09/02 12:49:47;;;;;;;8.02;3.65;;;;;;;;;;5054227;28;20402;-73
2021/09/02 12:52:14;;;;;;;9.20;4.28;;;;;;;;;;5052837;28;20033;-73
2021/09/02 12:55:01;;;;;;;9.40;4.20;;;;;;;;;;5054271;28;20033;-76
2021/09/02 12:57:27;;;;;;;7.55;3.97;;;;;;;;;;5052813;28;20033;-76
2021/09/02 12:59:53;;;;;;;8.68;3.80;;;;;;;;;;5036207;28;20059;-75
2021/09/02 13:02:21;;;;;;;9.05;3.85;;;;;;;;;;5052789;28;20037;-76
2021/09/02 13:04:46;;;;;;;7.40;4.40;;;;;;;;;;5035974;28;20040;-76
2021/09/02 13:07:11;;;;;;;10.52;4.07;;;;;;;;;;5052721;28;20474;-76
2021/09/02 13:09:37;;;;;;;12.13;4.90;;;;;;;;;;5051376;28;20387;-76
2021/09/02 13:12:03;;;;;;;12.23;4.00;;;;;;;;;;5053830;28;20390;-76
2021/09/02 13:14:28;;;;;;;8.98;4.30;;;;;;;;;;5053716;28;20087;-76
2021/09/02 13:16:54;;;;;;;7.70;3.88;;;;;;;;;;5052561;28;20037;-76
2021/09/02 13:19:19;;;;;;;8.07;3.92;;;;;;;;;;5035884;28;20036;-76
2021/09/02 13:21:45;;;;;;;5.00;3.97;;;;;;;;;;5053784;28;20459;-76
2021/09/02 13:24:10;;;;;;;7.47;4.15;;;;;;;;;;5053458;28;20036;-76
2021/09/02 13:26:36;;;;;;;7.57;3.63;;;;;;;;;;5052280;28;20379;-76
2021/09/02 13:29:02;;;;;;;7.65;4.13;;;;;;;;;;5052260;28;20485;-76
2021/09/02 13:31:29;;;;;;;7.72;4.32;;;;;;;;;;5052219;28;20040;-76
2021/09/02 13:33:55;;;;;;;9.20;4.38;;;;;;;;;;5053285;28;20041;-76
2021/09/02 13:36:20;;;;;;;8.45;4.18;;;;;;;;;;5052191;28;20094;-76
2021/09/02 13:38:47;;;;;;;9.55;4.40;;;;;;;;;;5035124;28;20037;-76
2021/09/02 13:41:12;;;;;;;8.45;4.22;;;;;;;;;;5034890;28;20037;-76
2021/09/02 13:43:38;;;;;;;8.68;4.55;;;;;;;;;;5053307;28;20036;-77
2021/09/02 13:46:05;;;;;;;13.25;4.45;;;;;;;;;;5057703;28;20029;-79
2021/09/02 13:48:31;;;;;;;8.98;3.88;;;;;;;;;;5053233;28;20513;-77
2021/09/02 13:50:56;;;;;;;6.75;3.65;;;;;;;;;;5056297;28;20029;-76
2021/09/02 13:53:22;;;;;;;6.43;3.30;;;;;;;;;;5033378;28;20032;-75
2021/09/02 13:55:48;;;;;;;6.63;3.42;;;;;;;;;;5051485;28;20029;-76
2021/09/02 13:58:13;;;;;;;9.70;3.92;;;;;;;;;;5051674;28;20486;-75
2021/09/02 14:00:40;;;;;;;4.53;3.08;;;;;;;;;;5050187;28;20033;-75
2021/09/02 14:03:06;;;;;;;5.85;3.38;;;;;;;;;;5050606;28;20044;-75
2021/09/02 14:05:32;;;;;;;7.57;3.90;;;;;;;;;;5050727;28;20375;-76
2021/09/02 14:07:57;;;;;;;6.25;3.17;;;;;;;;;;5052244;28;20033;-76
2021/09/02 14:10:23;;;;;;;11.13;3.95;;;;;;;;;;5051330;28;20079;-76
2021/09/02 14:12:48;;;;;;;7.60;3.38;;;;;;;;;;5051150;28;20041;-75
2021/09/02 14:15:14;;;;;;;10.23;3.75;;;;;;;;;;5055050;28;20086;-75
2021/09/02 14:17:40;;;;;;;7.85;3.90;;;;;;;;;;5038905;28;20040;-76
2021/09/02 14:20:07;;;;;;;7.22;3.85;;;;;;;;;;5055415;28;20064;-76
2021/09/02 14:22:33;;;;;;;6.97;3.85;;;;;;;;;;5035867;28;20079;-76
2021/09/02 14:24:58;;;;;;;7.70;3.65;;;;;;;;;;5037450;28;20029;-76
2021/09/02 14:27:23;;;;;;;7.65;3.42;;;;;;;;;;5036769;28;20037;-76
2021/09/02 14:29:49;;;;;;;6.80;3.70;;;;;;;;;;5037248;28;20033;-76
2021/09/02 14:32:14;;;;;;;5.13;3.15;;;;;;;;;;5019304;28;20160;-76
2021/09/02 14:34:42;;;;;;;5.72;3.13;;;;;;;;;;5036957;28;20041;-76
2021/09/02 14:37:07;;;;;;;7.43;3.50;;;;;;;;;;5037842;28;20069;-77